sensor_id;sensor_type;location;lat;lon;timestamp;P1;durP1;ratioP1;P2;durP2;ratioP2
7001;SDS011;3541;53.230;10.518;2023-10-31T00:01:28;4.73;;;2.30;;
7001;SDS011;3541;53.230;10.518;2023-10-31T00:03:56;4.87;;;2.83;;
7001;SDS011;3541;53.230;10.518;2023-10-31T00:06:23;3.93;;;2.30;;
7001;SDS011;3541;53.230;10.518;2023-10-31T00:08:49;4.93;;;2.50;;
7001;SDS011;3541;53.230;10.518;2023-10-31T00:11:16;3.03;;;2.40;;
7001;SDS011;3541;53.230;10.518;2023-10-31T00:13:43;4.53;;;2.50;;
7001;SDS011;3541;53.230;10.518;2023-10-31T00:16:09;4.87;;;3.03;;
7001;SDS011;3541;53.230;10.518;2023-10-31T00:18:36;4.40;;;2.33;;
7001;SDS011;3541;53.230;10.518;2023-10-31T00:21:04;3.73;;;2.87;;
7001;SDS011;3541;53.230;10.518;2023-10-31T00:23:31;4.47;;;2.43;;
7001;SDS011;3541;53.230;10.518;2023-10-31T00:25:58;6.13;;;2.73;;
7001;SDS011;3541;53.230;10.518;2023-10-31T00:28:24;3.07;;;2.50;;
7001;SDS011;3541;53.230;10.518;2023-10-31T00:30:51;5.47;;;2.37;;
7001;SDS011;3541;53.230;10.518;2023-10-31T00:33:17;4.20;;;2.30;;
7001;SDS011;3541;53.230;10.518;2023-10-31T00:35:44;3.47;;;2.43;;
7001;SDS011;3541;53.230;10.518;2023-10-31T00:38:12;3.93;;;3.00;;
7001;SDS011;3541;53.230;10.518;2023-10-31T00:40:38;3.90;;;2.60;;
7001;SDS011;3541;53.230;10.518;2023-10-31T00:43:05;4.70;;;2.70;;
7001;SDS011;3541;53.230;10.518;2023-10-31T00:45:31;4.27;;;2.53;;
7001;SDS011;3541;53.230;10.518;2023-10-31T00:47:58;4.40;;;2.57;;
7001;SDS011;3541;53.230;10.518;2023-10-31T00:50:24;4.20;;;2.50;;
7001;SDS011;3541;53.230;10.518;2023-10-31T00:52:51;3.17;;;2.50;;
7001;SDS011;3541;53.230;10.518;2023-10-31T00:55:19;5.30;;;2.63;;
7001;SDS011;3541;53.230;10.518;2023-10-31T00:57:45;3.00;;;2.20;;
7001;SDS011;3541;53.230;10.518;2023-10-31T01:00:12;4.63;;;2.70;;
7001;SDS011;3541;53.230;10.518;2023-10-31T01:02:39;4.07;;;2.57;;
7001;SDS011;3541;53.230;10.518;2023-10-31T01:05:06;3.10;;;2.50;;
7001;SDS011;3541;53.230;10.518;2023-10-31T01:07:33;5.33;;;2.37;;
7001;SDS011;3541;53.230;10.518;2023-10-31T01:10:00;4.77;;;2.93;;
7001;SDS011;3541;53.230;10.518;2023-10-31T01:12:28;5.47;;;2.23;;
7001;SDS011;3541;53.230;10.518;2023-10-31T01:14:55;4.57;;;2.80;;
7001;SDS011;3541;53.230;10.518;2023-10-31T01:17:22;4.13;;;3.03;;
7001;SDS011;3541;53.230;10.518;2023-10-31T01:19:49;4.17;;;2.97;;
7001;SDS011;3541;53.230;10.518;2023-10-31T01:22:15;5.50;;;3.07;;
7001;SDS011;3541;53.230;10.518;2023-10-31T01:24:42;5.87;;;3.10;;
7001;SDS011;3541;53.230;10.518;2023-10-31T01:27:08;4.70;;;3.03;;
7001;SDS011;3541;53.230;10.518;2023-10-31T01:29:36;4.20;;;3.07;;
7001;SDS011;3541;53.230;10.518;2023-10-31T01:32:03;4.50;;;3.00;;
7001;SDS011;3541;53.230;10.518;2023-10-31T01:34:30;5.53;;;3.03;;
7001;SDS011;3541;53.230;10.518;2023-10-31T01:36:57;5.53;;;3.23;;
7001;SDS011;3541;53.230;10.518;2023-10-31T01:39:23;3.73;;;3.20;;
7001;SDS011;3541;53.230;10.518;2023-10-31T01:41:50;6.50;;;3.17;;
7001;SDS011;3541;53.230;10.518;2023-10-31T01:44:19;5.53;;;3.80;;
7001;SDS011;3541;53.230;10.518;2023-10-31T01:46:47;4.77;;;3.40;;
7001;SDS011;3541;53.230;10.518;2023-10-31T01:49:14;3.90;;;3.37;;
7001;SDS011;3541;53.230;10.518;2023-10-31T01:51:41;4.57;;;3.17;;
7001;SDS011;3541;53.230;10.518;2023-10-31T01:54:08;8.13;;;3.83;;
7001;SDS011;3541;53.230;10.518;2023-10-31T01:56:36;5.53;;;3.63;;
7001;SDS011;3541;53.230;10.518;2023-10-31T01:59:04;6.27;;;3.73;;
7001;SDS011;3541;53.230;10.518;2023-10-31T02:01:31;6.13;;;3.67;;
7001;SDS011;3541;53.230;10.518;2023-10-31T02:03:59;7.67;;;3.90;;
7001;SDS011;3541;53.230;10.518;2023-10-31T02:06:27;5.03;;;3.50;;
7001;SDS011;3541;53.230;10.518;2023-10-31T02:08:55;4.93;;;3.87;;
7001;SDS011;3541;53.230;10.518;2023-10-31T02:11:21;4.23;;;3.43;;
7001;SDS011;3541;53.230;10.518;2023-10-31T02:13:48;6.30;;;4.00;;
7001;SDS011;3541;53.230;10.518;2023-10-31T02:16:14;4.67;;;3.67;;
7001;SDS011;3541;53.230;10.518;2023-10-31T02:18:41;5.97;;;3.87;;
7001;SDS011;3541;53.230;10.518;2023-10-31T02:21:09;5.97;;;3.40;;
7001;SDS011;3541;53.230;10.518;2023-10-31T02:23:37;7.00;;;4.00;;
7001;SDS011;3541;53.230;10.518;2023-10-31T02:26:04;5.60;;;4.00;;
7001;SDS011;3541;53.230;10.518;2023-10-31T02:28:31;4.90;;;3.97;;
7001;SDS011;3541;53.230;10.518;2023-10-31T02:30:58;6.40;;;4.00;;
7001;SDS011;3541;53.230;10.518;2023-10-31T02:33:25;6.00;;;4.07;;
7001;SDS011;3541;53.230;10.518;2023-10-31T02:35:51;5.37;;;3.90;;
7001;SDS011;3541;53.230;10.518;2023-10-31T02:38:18;7.50;;;4.10;;
7001;SDS011;3541;53.230;10.518;2023-10-31T02:40:46;6.50;;;3.93;;
7001;SDS011;3541;53.230;10.518;2023-10-31T02:43:13;5.87;;;4.03;;
7001;SDS011;3541;53.230;10.518;2023-10-31T02:45:39;4.43;;;4.00;;
7001;SDS011;3541;53.230;10.518;2023-10-31T02:48:06;6.27;;;4.23;;
7001;SDS011;3541;53.230;10.518;2023-10-31T02:50:32;6.87;;;4.57;;
7001;SDS011;3541;53.230;10.518;2023-10-31T02:52:59;5.27;;;4.73;;
7001;SDS011;3541;53.230;10.518;2023-10-31T02:55:25;6.77;;;4.57;;
7001;SDS011;3541;53.230;10.518;2023-10-31T02:57:53;6.70;;;4.63;;
7001;SDS011;3541;53.230;10.518;2023-10-31T03:00:20;6.53;;;4.60;;
7001;SDS011;3541;53.230;10.518;2023-10-31T03:02:47;6.63;;;4.57;;
7001;SDS011;3541;53.230;10.518;2023-10-31T03:05:13;6.73;;;4.80;;
7001;SDS011;3541;53.230;10.518;2023-10-31T03:07:40;5.10;;;4.47;;
7001;SDS011;3541;53.230;10.518;2023-10-31T03:10:06;8.63;;;5.50;;
7001;SDS011;3541;53.230;10.518;2023-10-31T03:12:33;6.70;;;5.20;;
7001;SDS011;3541;53.230;10.518;2023-10-31T03:15:01;5.77;;;4.50;;
7001;SDS011;3541;53.230;10.518;2023-10-31T03:17:28;7.17;;;4.67;;
7001;SDS011;3541;53.230;10.518;2023-10-31T03:19:55;9.40;;;5.07;;
7001;SDS011;3541;53.230;10.518;2023-10-31T03:22:21;7.17;;;4.43;;
7001;SDS011;3541;53.230;10.518;2023-10-31T03:24:48;6.17;;;4.83;;
7001;SDS011;3541;53.230;10.518;2023-10-31T03:27:14;7.67;;;4.93;;
7001;SDS011;3541;53.230;10.518;2023-10-31T03:29:41;7.07;;;5.30;;
7001;SDS011;3541;53.230;10.518;2023-10-31T03:32:09;6.40;;;5.00;;
7001;SDS011;3541;53.230;10.518;2023-10-31T03:34:36;6.77;;;4.90;;
7001;SDS011;3541;53.230;10.518;2023-10-31T03:37:02;6.83;;;5.30;;
7001;SDS011;3541;53.230;10.518;2023-10-31T03:39:29;6.00;;;5.07;;
7001;SDS011;3541;53.230;10.518;2023-10-31T03:41:55;9.07;;;5.43;;
7001;SDS011;3541;53.230;10.518;2023-10-31T03:44:22;7.37;;;4.80;;
7001;SDS011;3541;53.230;10.518;2023-10-31T03:46:48;8.60;;;5.47;;
7001;SDS011;3541;53.230;10.518;2023-10-31T03:49:16;5.73;;;4.67;;
7001;SDS011;3541;53.230;10.518;2023-10-31T03:51:43;7.93;;;4.87;;
7001;SDS011;3541;53.230;10.518;2023-10-31T03:54:10;7.93;;;5.23;;
7001;SDS011;3541;53.230;10.518;2023-10-31T03:56:39;7.13;;;5.33;;
7001;SDS011;3541;53.230;10.518;2023-10-31T03:59:06;6.43;;;4.73;;
7001;SDS011;3541;53.230;10.518;2023-10-31T04:01:32;10.53;;;5.63;;
7001;SDS011;3541;53.230;10.518;2023-10-31T04:03:59;7.40;;;5.27;;
7001;SDS011;3541;53.230;10.518;2023-10-31T04:06:27;8.37;;;4.93;;
7001;SDS011;3541;53.230;10.518;2023-10-31T04:08:53;5.73;;;4.60;;
7001;SDS011;3541;53.230;10.518;2023-10-31T04:11:20;8.23;;;5.27;;
7001;SDS011;3541;53.230;10.518;2023-10-31T04:13:47;8.93;;;5.23;;
7001;SDS011;3541;53.230;10.518;2023-10-31T04:16:13;6.87;;;5.33;;
7001;SDS011;3541;53.230;10.518;2023-10-31T04:18:40;6.20;;;4.67;;
7001;SDS011;3541;53.230;10.518;2023-10-31T04:21:06;5.53;;;4.70;;
7001;SDS011;3541;53.230;10.518;2023-10-31T04:23:34;7.00;;;4.53;;
7001;SDS011;3541;53.230;10.518;2023-10-31T04:26:01;7.17;;;4.63;;
7001;SDS011;3541;53.230;10.518;2023-10-31T04:28:27;11.27;;;5.20;;
7001;SDS011;3541;53.230;10.518;2023-10-31T04:30:54;6.73;;;4.77;;
7001;SDS011;3541;53.230;10.518;2023-10-31T04:33:20;6.73;;;4.77;;
7001;SDS011;3541;53.230;10.518;2023-10-31T04:35:47;5.23;;;4.73;;
7001;SDS011;3541;53.230;10.518;2023-10-31T04:38:13;11.33;;;5.30;;
7001;SDS011;3541;53.230;10.518;2023-10-31T04:40:41;6.70;;;4.80;;
7001;SDS011;3541;53.230;10.518;2023-10-31T04:43:08;7.93;;;4.60;;
7001;SDS011;3541;53.230;10.518;2023-10-31T04:45:35;6.70;;;4.90;;
7001;SDS011;3541;53.230;10.518;2023-10-31T04:48:01;8.13;;;4.90;;
7001;SDS011;3541;53.230;10.518;2023-10-31T04:50:28;7.43;;;4.70;;
7001;SDS011;3541;53.230;10.518;2023-10-31T04:52:54;7.27;;;4.63;;
7001;SDS011;3541;53.230;10.518;2023-10-31T04:55:21;6.53;;;4.57;;
7001;SDS011;3541;53.230;10.518;2023-10-31T04:57:49;7.20;;;5.07;;
7001;SDS011;3541;53.230;10.518;2023-10-31T05:00:15;7.33;;;5.07;;
7001;SDS011;3541;53.230;10.518;2023-10-31T05:02:42;7.47;;;4.90;;
7001;SDS011;3541;53.230;10.518;2023-10-31T05:05:09;9.27;;;5.60;;
7001;SDS011;3541;53.230;10.518;2023-10-31T05:07:36;6.53;;;5.10;;
7001;SDS011;3541;53.230;10.518;2023-10-31T05:10:02;5.30;;;4.50;;
7001;SDS011;3541;53.230;10.518;2023-10-31T05:12:29;5.70;;;4.90;;
7001;SDS011;3541;53.230;10.518;2023-10-31T05:14:57;8.43;;;4.53;;
7001;SDS011;3541;53.230;10.518;2023-10-31T05:17:24;7.40;;;4.57;;
7001;SDS011;3541;53.230;10.518;2023-10-31T05:19:50;7.77;;;4.37;;
7001;SDS011;3541;53.230;10.518;2023-10-31T05:22:17;8.40;;;4.40;;
7001;SDS011;3541;53.230;10.518;2023-10-31T05:24:43;6.57;;;4.40;;
7001;SDS011;3541;53.230;10.518;2023-10-31T05:27:10;5.30;;;3.93;;
7001;SDS011;3541;53.230;10.518;2023-10-31T05:29:38;5.20;;;3.73;;
7001;SDS011;3541;53.230;10.518;2023-10-31T05:32:06;3.80;;;3.27;;
7001;SDS011;3541;53.230;10.518;2023-10-31T05:34:33;4.67;;;3.27;;
7001;SDS011;3541;53.230;10.518;2023-10-31T05:36:59;3.67;;;3.17;;
7001;SDS011;3541;53.230;10.518;2023-10-31T05:39:26;5.47;;;3.30;;
7001;SDS011;3541;53.230;10.518;2023-10-31T05:41:52;4.53;;;3.30;;
7001;SDS011;3541;53.230;10.518;2023-10-31T05:44:19;4.97;;;3.50;;
7001;SDS011;3541;53.230;10.518;2023-10-31T05:46:45;5.50;;;3.40;;
7001;SDS011;3541;53.230;10.518;2023-10-31T05:49:13;5.50;;;3.03;;
7001;SDS011;3541;53.230;10.518;2023-10-31T05:51:40;3.27;;;2.97;;
7001;SDS011;3541;53.230;10.518;2023-10-31T05:54:07;4.13;;;3.10;;
7001;SDS011;3541;53.230;10.518;2023-10-31T05:56:33;3.30;;;3.00;;
7001;SDS011;3541;53.230;10.518;2023-10-31T05:59:00;3.00;;;2.60;;
7001;SDS011;3541;53.230;10.518;2023-10-31T06:01:26;3.77;;;2.70;;
7001;SDS011;3541;53.230;10.518;2023-10-31T06:03:53;2.10;;;1.97;;
7001;SDS011;3541;53.230;10.518;2023-10-31T06:06:21;3.70;;;2.57;;
7001;SDS011;3541;53.230;10.518;2023-10-31T06:08:48;2.97;;;2.47;;
7001;SDS011;3541;53.230;10.518;2023-10-31T06:11:14;2.50;;;2.30;;
7001;SDS011;3541;53.230;10.518;2023-10-31T06:13:41;3.40;;;2.80;;
7001;SDS011;3541;53.230;10.518;2023-10-31T06:16:07;2.63;;;2.43;;
7001;SDS011;3541;53.230;10.518;2023-10-31T06:18:34;2.77;;;2.10;;
7001;SDS011;3541;53.230;10.518;2023-10-31T06:21:01;2.23;;;2.03;;
7001;SDS011;3541;53.230;10.518;2023-10-31T06:23:29;2.30;;;2.00;;
7001;SDS011;3541;53.230;10.518;2023-10-31T06:25:55;1.67;;;1.57;;
7001;SDS011;3541;53.230;10.518;2023-10-31T06:28:22;1.43;;;1.33;;
7001;SDS011;3541;53.230;10.518;2023-10-31T06:30:49;1.63;;;1.53;;
7001;SDS011;3541;53.230;10.518;2023-10-31T06:33:15;1.93;;;1.67;;
7001;SDS011;3541;53.230;10.518;2023-10-31T06:35:42;2.70;;;1.60;;
7001;SDS011;3541;53.230;10.518;2023-10-31T06:38:08;1.57;;;1.47;;
7001;SDS011;3541;53.230;10.518;2023-10-31T06:40:36;1.60;;;1.50;;
7001;SDS011;3541;53.230;10.518;2023-10-31T06:43:03;1.30;;;1.20;;
7001;SDS011;3541;53.230;10.518;2023-10-31T06:45:29;2.00;;;1.43;;
7001;SDS011;3541;53.230;10.518;2023-10-31T06:47:56;2.50;;;1.20;;
7001;SDS011;3541;53.230;10.518;2023-10-31T06:50:22;1.30;;;1.20;;
7001;SDS011;3541;53.230;10.518;2023-10-31T06:52:50;1.50;;;1.40;;
7001;SDS011;3541;53.230;10.518;2023-10-31T06:55:16;1.77;;;1.57;;
7001;SDS011;3541;53.230;10.518;2023-10-31T06:57:44;1.60;;;1.40;;
7001;SDS011;3541;53.230;10.518;2023-10-31T07:00:11;1.33;;;1.23;;
7001;SDS011;3541;53.230;10.518;2023-10-31T07:02:38;1.40;;;1.30;;
7001;SDS011;3541;53.230;10.518;2023-10-31T07:05:05;1.80;;;1.33;;
7001;SDS011;3541;53.230;10.518;2023-10-31T07:07:32;1.30;;;1.20;;
7001;SDS011;3541;53.230;10.518;2023-10-31T07:09:58;1.20;;;1.10;;
7001;SDS011;3541;53.230;10.518;2023-10-31T07:12:25;1.40;;;1.30;;
7001;SDS011;3541;53.230;10.518;2023-10-31T07:14:53;1.40;;;1.20;;
7001;SDS011;3541;53.230;10.518;2023-10-31T07:17:19;1.53;;;1.30;;
7001;SDS011;3541;53.230;10.518;2023-10-31T07:19:46;2.00;;;1.30;;
7001;SDS011;3541;53.230;10.518;2023-10-31T07:22:12;1.47;;;1.37;;
7001;SDS011;3541;53.230;10.518;2023-10-31T07:24:40;1.60;;;1.50;;
7001;SDS011;3541;53.230;10.518;2023-10-31T07:27:07;1.60;;;1.50;;
7001;SDS011;3541;53.230;10.518;2023-10-31T07:29:34;2.23;;;1.83;;
7001;SDS011;3541;53.230;10.518;2023-10-31T07:32:02;1.60;;;1.50;;
7001;SDS011;3541;53.230;10.518;2023-10-31T07:34:29;1.60;;;1.50;;
7001;SDS011;3541;53.230;10.518;2023-10-31T07:36:55;1.67;;;1.53;;
7001;SDS011;3541;53.230;10.518;2023-10-31T07:39:22;1.50;;;1.40;;
7001;SDS011;3541;53.230;10.518;2023-10-31T07:41:48;2.67;;;1.50;;
7001;SDS011;3541;53.230;10.518;2023-10-31T07:44:15;2.53;;;1.47;;
7001;SDS011;3541;53.230;10.518;2023-10-31T07:46:41;1.17;;;1.07;;
7001;SDS011;3541;53.230;10.518;2023-10-31T07:49:09;0.90;;;0.90;;
7001;SDS011;3541;53.230;10.518;2023-10-31T07:51:36;2.00;;;1.00;;
7001;SDS011;3541;53.230;10.518;2023-10-31T07:54:02;0.73;;;0.73;;
7001;SDS011;3541;53.230;10.518;2023-10-31T07:56:29;0.90;;;0.90;;
7001;SDS011;3541;53.230;10.518;2023-10-31T07:58:57;0.90;;;0.90;;
7001;SDS011;3541;53.230;10.518;2023-10-31T08:01:24;0.90;;;0.80;;
7001;SDS011;3541;53.230;10.518;2023-10-31T08:03:51;1.63;;;0.80;;
7001;SDS011;3541;53.230;10.518;2023-10-31T08:06:19;0.80;;;0.80;;
7001;SDS011;3541;53.230;10.518;2023-10-31T08:08:45;0.80;;;0.80;;
7001;SDS011;3541;53.230;10.518;2023-10-31T08:11:12;0.90;;;0.90;;
7001;SDS011;3541;53.230;10.518;2023-10-31T08:13:39;2.00;;;1.33;;
7001;SDS011;3541;53.230;10.518;2023-10-31T08:16:07;0.97;;;0.87;;
7001;SDS011;3541;53.230;10.518;2023-10-31T08:18:34;0.90;;;0.60;;
7001;SDS011;3541;53.230;10.518;2023-10-31T08:21:01;1.60;;;0.70;;
7001;SDS011;3541;53.230;10.518;2023-10-31T08:23:29;0.97;;;0.90;;
7001;SDS011;3541;53.230;10.518;2023-10-31T08:25:56;0.70;;;0.70;;
7001;SDS011;3541;53.230;10.518;2023-10-31T08:28:23;0.73;;;0.73;;
7001;SDS011;3541;53.230;10.518;2023-10-31T08:30:49;1.83;;;1.00;;
7001;SDS011;3541;53.230;10.518;2023-10-31T08:33:16;0.80;;;0.80;;
7001;SDS011;3541;53.230;10.518;2023-10-31T08:35:43;3.80;;;1.77;;
7001;SDS011;3541;53.230;10.518;2023-10-31T08:38:09;0.80;;;0.80;;
7001;SDS011;3541;53.230;10.518;2023-10-31T08:40:37;1.00;;;0.97;;
7001;SDS011;3541;53.230;10.518;2023-10-31T08:43:03;1.57;;;0.90;;
7001;SDS011;3541;53.230;10.518;2023-10-31T08:45:31;0.80;;;0.80;;
7001;SDS011;3541;53.230;10.518;2023-10-31T08:47:58;0.80;;;0.80;;
7001;SDS011;3541;53.230;10.518;2023-10-31T08:50:24;1.00;;;0.87;;
7001;SDS011;3541;53.230;10.518;2023-10-31T08:52:51;2.00;;;1.53;;
7001;SDS011;3541;53.230;10.518;2023-10-31T08:55:17;1.63;;;0.87;;
7001;SDS011;3541;53.230;10.518;2023-10-31T08:57:46;1.23;;;0.90;;
7001;SDS011;3541;53.230;10.518;2023-10-31T09:00:13;0.80;;;0.80;;
7001;SDS011;3541;53.230;10.518;2023-10-31T09:02:40;1.07;;;0.93;;
7001;SDS011;3541;53.230;10.518;2023-10-31T09:05:08;0.90;;;0.80;;
7001;SDS011;3541;53.230;10.518;2023-10-31T09:07:34;2.17;;;0.80;;
7001;SDS011;3541;53.230;10.518;2023-10-31T09:10:01;1.20;;;0.90;;
7001;SDS011;3541;53.230;10.518;2023-10-31T09:12:28;0.77;;;0.77;;
7001;SDS011;3541;53.230;10.518;2023-10-31T09:14:56;1.07;;;0.97;;
7001;SDS011;3541;53.230;10.518;2023-10-31T09:17:22;0.70;;;0.70;;
7001;SDS011;3541;53.230;10.518;2023-10-31T09:19:49;1.50;;;0.80;;
7001;SDS011;3541;53.230;10.518;2023-10-31T09:22:15;1.00;;;0.80;;
7001;SDS011;3541;53.230;10.518;2023-10-31T09:24:42;0.70;;;0.70;;
7001;SDS011;3541;53.230;10.518;2023-10-31T09:27:09;0.80;;;0.80;;
7001;SDS011;3541;53.230;10.518;2023-10-31T09:29:36;0.90;;;0.80;;
7001;SDS011;3541;53.230;10.518;2023-10-31T09:32:04;0.80;;;0.70;;
7001;SDS011;3541;53.230;10.518;2023-10-31T09:34:32;1.23;;;1.10;;
7001;SDS011;3541;53.230;10.518;2023-10-31T09:36:58;0.80;;;0.80;;
7001;SDS011;3541;53.230;10.518;2023-10-31T09:39:25;0.50;;;0.50;;
7001;SDS011;3541;53.230;10.518;2023-10-31T09:41:52;0.70;;;0.70;;
7001;SDS011;3541;53.230;10.518;2023-10-31T09:44:19;0.70;;;0.70;;
7001;SDS011;3541;53.230;10.518;2023-10-31T09:46:46;0.60;;;0.60;;
7001;SDS011;3541;53.230;10.518;2023-10-31T09:49:14;0.60;;;0.60;;
7001;SDS011;3541;53.230;10.518;2023-10-31T09:51:42;1.53;;;1.00;;
7001;SDS011;3541;53.230;10.518;2023-10-31T09:54:09;0.80;;;0.80;;
7001;SDS011;3541;53.230;10.518;2023-10-31T09:56:38;0.77;;;0.77;;
7001;SDS011;3541;53.230;10.518;2023-10-31T09:59:04;0.70;;;0.70;;
7001;SDS011;3541;53.230;10.518;2023-10-31T10:01:31;0.60;;;0.60;;
7001;SDS011;3541;53.230;10.518;2023-10-31T10:03:57;1.70;;;0.73;;
7001;SDS011;3541;53.230;10.518;2023-10-31T10:06:26;0.90;;;0.80;;
7001;SDS011;3541;53.230;10.518;2023-10-31T10:08:54;0.60;;;0.60;;
7001;SDS011;3541;53.230;10.518;2023-10-31T10:11:21;1.77;;;0.60;;
7001;SDS011;3541;53.230;10.518;2023-10-31T10:13:48;0.83;;;0.70;;
7001;SDS011;3541;53.230;10.518;2023-10-31T10:16:27;0.80;;;0.80;;
7001;SDS011;3541;53.230;10.518;2023-10-31T10:18:55;0.60;;;0.60;;
7001;SDS011;3541;53.230;10.518;2023-10-31T10:21:21;0.73;;;0.60;;
7001;SDS011;3541;53.230;10.518;2023-10-31T10:23:49;2.47;;;0.83;;
7001;SDS011;3541;53.230;10.518;2023-10-31T10:26:17;1.57;;;0.70;;
7001;SDS011;3541;53.230;10.518;2023-10-31T10:28:46;0.90;;;0.90;;
7001;SDS011;3541;53.230;10.518;2023-10-31T10:31:13;1.33;;;0.87;;
7001;SDS011;3541;53.230;10.518;2023-10-31T10:33:40;0.70;;;0.70;;
7001;SDS011;3541;53.230;10.518;2023-10-31T10:36:08;0.63;;;0.63;;
7001;SDS011;3541;53.230;10.518;2023-10-31T10:38:36;0.80;;;0.80;;
7001;SDS011;3541;53.230;10.518;2023-10-31T10:41:06;0.60;;;0.60;;
7001;SDS011;3541;53.230;10.518;2023-10-31T10:43:36;0.80;;;0.80;;
7001;SDS011;3541;53.230;10.518;2023-10-31T10:46:04;0.80;;;0.80;;
7001;SDS011;3541;53.230;10.518;2023-10-31T10:48:35;0.70;;;0.70;;
7001;SDS011;3541;53.230;10.518;2023-10-31T10:51:05;0.70;;;0.70;;
7001;SDS011;3541;53.230;10.518;2023-10-31T10:53:42;0.77;;;0.77;;
7001;SDS011;3541;53.230;10.518;2023-10-31T10:56:19;0.80;;;0.80;;
7001;SDS011;3541;53.230;10.518;2023-10-31T10:58:55;1.57;;;0.67;;
7001;SDS011;3541;53.230;10.518;2023-10-31T11:01:28;1.00;;;1.00;;
7001;SDS011;3541;53.230;10.518;2023-10-31T11:03:56;1.00;;;0.90;;
7001;SDS011;3541;53.230;10.518;2023-10-31T11:06:24;1.17;;;0.90;;
7001;SDS011;3541;53.230;10.518;2023-10-31T11:08:52;2.00;;;1.30;;
7001;SDS011;3541;53.230;10.518;2023-10-31T11:11:22;1.27;;;0.90;;
7001;SDS011;3541;53.230;10.518;2023-10-31T11:13:50;0.90;;;0.90;;
7001;SDS011;3541;53.230;10.518;2023-10-31T11:16:17;2.57;;;1.00;;
7001;SDS011;3541;53.230;10.518;2023-10-31T11:18:52;0.87;;;0.87;;
7001;SDS011;3541;53.230;10.518;2023-10-31T11:21:19;0.80;;;0.80;;
7001;SDS011;3541;53.230;10.518;2023-10-31T11:23:54;0.93;;;0.80;;
7001;SDS011;3541;53.230;10.518;2023-10-31T11:26:26;0.80;;;0.80;;
7001;SDS011;3541;53.230;10.518;2023-10-31T11:29:01;0.70;;;0.70;;
7001;SDS011;3541;53.230;10.518;2023-10-31T11:31:29;0.80;;;0.80;;
7001;SDS011;3541;53.230;10.518;2023-10-31T11:33:56;2.37;;;1.20;;
7001;SDS011;3541;53.230;10.518;2023-10-31T11:36:23;0.90;;;0.90;;
7001;SDS011;3541;53.230;10.518;2023-10-31T11:38:50;1.67;;;1.57;;
7001;SDS011;3541;53.230;10.518;2023-10-31T11:41:38;0.83;;;0.63;;
7001;SDS011;3541;53.230;10.518;2023-10-31T11:44:05;1.80;;;1.13;;
7001;SDS011;3541;53.230;10.518;2023-10-31T11:46:32;1.03;;;0.93;;
7001;SDS011;3541;53.230;10.518;2023-10-31T11:48:58;1.43;;;1.00;;
7001;SDS011;3541;53.230;10.518;2023-10-31T11:51:27;3.40;;;1.30;;
7001;SDS011;3541;53.230;10.518;2023-10-31T11:53:53;1.07;;;0.90;;
7001;SDS011;3541;53.230;10.518;2023-10-31T11:56:20;1.47;;;1.00;;
7001;SDS011;3541;53.230;10.518;2023-10-31T11:58:55;1.90;;;1.10;;
7001;SDS011;3541;53.230;10.518;2023-10-31T12:01:26;0.90;;;0.90;;
7001;SDS011;3541;53.230;10.518;2023-10-31T12:03:53;0.97;;;0.97;;
7001;SDS011;3541;53.230;10.518;2023-10-31T12:06:20;0.80;;;0.80;;
7001;SDS011;3541;53.230;10.518;2023-10-31T12:08:47;1.00;;;0.87;;
7001;SDS011;3541;53.230;10.518;2023-10-31T12:11:15;0.87;;;0.87;;
7001;SDS011;3541;53.230;10.518;2023-10-31T12:13:51;1.93;;;0.80;;
7001;SDS011;3541;53.230;10.518;2023-10-31T12:16:22;0.97;;;0.97;;
7001;SDS011;3541;53.230;10.518;2023-10-31T12:18:53;1.13;;;0.90;;
7001;SDS011;3541;53.230;10.518;2023-10-31T12:21:33;0.90;;;0.90;;
7001;SDS011;3541;53.230;10.518;2023-10-31T12:24:04;1.33;;;0.80;;
7001;SDS011;3541;53.230;10.518;2023-10-31T12:26:31;0.70;;;0.70;;
7001;SDS011;3541;53.230;10.518;2023-10-31T12:29:06;0.70;;;0.70;;
7001;SDS011;3541;53.230;10.518;2023-10-31T12:31:34;1.90;;;0.80;;
7001;SDS011;3541;53.230;10.518;2023-10-31T12:34:04;1.53;;;1.13;;
7001;SDS011;3541;53.230;10.518;2023-10-31T12:36:31;0.80;;;0.80;;
7001;SDS011;3541;53.230;10.518;2023-10-31T12:38:58;0.90;;;0.70;;
7001;SDS011;3541;53.230;10.518;2023-10-31T12:41:25;0.70;;;0.70;;
7001;SDS011;3541;53.230;10.518;2023-10-31T12:43:52;1.30;;;0.80;;
7001;SDS011;3541;53.230;10.518;2023-10-31T12:46:25;1.17;;;0.83;;
7001;SDS011;3541;53.230;10.518;2023-10-31T12:48:55;1.80;;;0.80;;
7001;SDS011;3541;53.230;10.518;2023-10-31T12:51:22;4.30;;;2.23;;
7001;SDS011;3541;53.230;10.518;2023-10-31T12:53:48;3.37;;;1.10;;
7001;SDS011;3541;53.230;10.518;2023-10-31T12:59:04;0.80;;;0.80;;
7001;SDS011;3541;53.230;10.518;2023-10-31T13:01:32;0.93;;;0.80;;
7001;SDS011;3541;53.230;10.518;2023-10-31T13:04:00;1.20;;;1.10;;
7001;SDS011;3541;53.230;10.518;2023-10-31T13:06:27;0.77;;;0.77;;
7001;SDS011;3541;53.230;10.518;2023-10-31T13:08:54;1.13;;;0.90;;
7001;SDS011;3541;53.230;10.518;2023-10-31T13:11:22;1.30;;;1.03;;
7001;SDS011;3541;53.230;10.518;2023-10-31T13:13:50;1.57;;;1.47;;
7001;SDS011;3541;53.230;10.518;2023-10-31T13:16:17;4.27;;;1.00;;
7001;SDS011;3541;53.230;10.518;2023-10-31T13:18:44;2.63;;;0.70;;
7001;SDS011;3541;53.230;10.518;2023-10-31T13:21:12;1.60;;;0.77;;
7001;SDS011;3541;53.230;10.518;2023-10-31T13:23:39;1.27;;;0.73;;
7001;SDS011;3541;53.230;10.518;2023-10-31T13:26:08;0.70;;;0.70;;
7001;SDS011;3541;53.230;10.518;2023-10-31T13:28:35;1.60;;;0.90;;
7001;SDS011;3541;53.230;10.518;2023-10-31T13:31:04;1.20;;;1.00;;
7001;SDS011;3541;53.230;10.518;2023-10-31T13:33:30;1.00;;;0.80;;
7001;SDS011;3541;53.230;10.518;2023-10-31T13:35:57;1.10;;;1.10;;
7001;SDS011;3541;53.230;10.518;2023-10-31T13:38:25;1.97;;;1.00;;
7001;SDS011;3541;53.230;10.518;2023-10-31T13:40:51;1.13;;;1.03;;
7001;SDS011;3541;53.230;10.518;2023-10-31T13:43:18;1.27;;;1.17;;
7001;SDS011;3541;53.230;10.518;2023-10-31T13:45:44;1.30;;;1.20;;
7001;SDS011;3541;53.230;10.518;2023-10-31T13:48:11;1.40;;;0.80;;
7001;SDS011;3541;53.230;10.518;2023-10-31T13:50:39;0.93;;;0.80;;
7001;SDS011;3541;53.230;10.518;2023-10-31T13:53:06;0.80;;;0.80;;
7001;SDS011;3541;53.230;10.518;2023-10-31T13:55:34;1.33;;;0.97;;
7001;SDS011;3541;53.230;10.518;2023-10-31T13:58:01;1.20;;;0.90;;
7001;SDS011;3541;53.230;10.518;2023-10-31T14:00:28;1.13;;;0.90;;
7001;SDS011;3541;53.230;10.518;2023-10-31T14:02:55;0.97;;;0.90;;
7001;SDS011;3541;53.230;10.518;2023-10-31T14:05:21;1.00;;;0.93;;
7001;SDS011;3541;53.230;10.518;2023-10-31T14:07:48;1.70;;;0.80;;
7001;SDS011;3541;53.230;10.518;2023-10-31T14:10:16;1.90;;;1.80;;
7001;SDS011;3541;53.230;10.518;2023-10-31T14:12:45;1.23;;;1.13;;
7001;SDS011;3541;53.230;10.518;2023-10-31T14:15:12;1.17;;;1.07;;
7001;SDS011;3541;53.230;10.518;2023-10-31T14:17:39;1.20;;;1.10;;
7001;SDS011;3541;53.230;10.518;2023-10-31T14:20:06;1.17;;;1.07;;
7001;SDS011;3541;53.230;10.518;2023-10-31T14:22:33;1.87;;;1.00;;
7001;SDS011;3541;53.230;10.518;2023-10-31T14:25:00;1.40;;;1.00;;
7001;SDS011;3541;53.230;10.518;2023-10-31T14:27:29;1.90;;;1.20;;
7001;SDS011;3541;53.230;10.518;2023-10-31T14:29:57;2.20;;;1.20;;
7001;SDS011;3541;53.230;10.518;2023-10-31T14:32:23;1.43;;;1.00;;
7001;SDS011;3541;53.230;10.518;2023-10-31T14:34:50;1.40;;;1.30;;
7001;SDS011;3541;53.230;10.518;2023-10-31T14:37:17;1.30;;;1.10;;
7001;SDS011;3541;53.230;10.518;2023-10-31T14:39:43;2.20;;;1.10;;
7001;SDS011;3541;53.230;10.518;2023-10-31T14:42:10;7.90;;;5.20;;
7001;SDS011;3541;53.230;10.518;2023-10-31T14:44:36;14.63;;;9.00;;
7001;SDS011;3541;53.230;10.518;2023-10-31T14:47:04;5.80;;;4.57;;
7001;SDS011;3541;53.230;10.518;2023-10-31T14:49:31;1.43;;;1.17;;
7001;SDS011;3541;53.230;10.518;2023-10-31T14:51:57;5.70;;;3.73;;
7001;SDS011;3541;53.230;10.518;2023-10-31T14:54:24;1.83;;;1.53;;
7001;SDS011;3541;53.230;10.518;2023-10-31T14:56:50;4.30;;;2.47;;
7001;SDS011;3541;53.230;10.518;2023-10-31T14:59:17;3.07;;;2.10;;
7001;SDS011;3541;53.230;10.518;2023-10-31T15:01:44;2.73;;;1.80;;
7001;SDS011;3541;53.230;10.518;2023-10-31T15:04:11;1.40;;;1.30;;